Forside
METAR-TAF:

METAR-TAF

Lufthavne :

South Wood County Airport (Alexander Field)

Wisconsin Rapids, Wisconsin, USA

Breddekreds: 44-21-33N, længdekreds: 089-50-13W, højde: 311 m

Aktuelle vejr

Denne rapport blev lavet for 55 minutter siden, kl. 16:54 UTC
Vind 10 kt fra sydøst, varierende mellem østsydøst og syd
Temperatur -1°C
Fugtighed 64%
Tryk 1016 hPa
Sigt: 16.1 km
Spredte skyer i en højde af 3800 ft

METAR: KISW 171654Z AUTO 13010KT 120V180 10SM SCT038 M01/M07 A3001 RMK AO2 SLP179 T10061067

Tid: 11:49 (17:49 UTC)


TAF: fraværende

Vejrobservationer og prognoser fra mere end 4000 lufthavne (METAR og TAF).

De gule og røde prikker repræsenterer de meteorologiske stationer.

Flyt musen over at se navnet på stationen.

Så klik over at se vejr observationer og prognoser.

At skifte det kort: Klik på de grønne knapper med et sort kors for at zoome ind; på den grønne knap med en bindestreg for at zoome ud; eller på de grønne pile for tilstødende kort.


METAR-TAF: